Time;durP1;ratioP1;P1;durP2;ratioP2;P2;SDS_P1;SDS_P2;PMS_P1;PMS_P2;Temp;Humidity;BMP_temperature;BMP_pressure;BME280_temperature;BME280_humidity;BME280_pressure;Samples;Min_cycle;Max_cycle;Signal;HPM_P1;HPM_P2
2024/01/15 00:02:26;;;;;;;17.00;14.60;;;;;;;2.09;100.00;98361.76;110655;1260;23689;-76
2024/01/15 00:04:58;;;;;;;15.00;12.90;;;;;;;2.07;100.00;98358.92;110758;1259;21962;-78
2024/01/15 00:07:31;;;;;;;16.90;13.80;;;;;;;2.03;100.00;98353.90;110601;1260;23690;-77
2024/01/15 00:10:04;;;;;;;19.30;15.30;;;;;;;2.00;100.00;98353.30;110102;1264;21966;-77
2024/01/15 00:12:34;;;;;;;17.40;14.40;;;;;;;1.99;100.00;98352.48;109755;1266;22219;-78
2024/01/15 00:15:04;;;;;;;17.30;14.50;;;;;;;2.00;100.00;98354.70;109826;1270;22024;-79
2024/01/15 00:17:32;;;;;;;16.40;14.10;;;;;;;2.02;100.00;98350.16;109542;1266;21979;-77
2024/01/15 00:20:01;;;;;;;16.70;14.00;;;;;;;2.06;100.00;98343.32;109876;1266;22257;-78
2024/01/15 00:22:31;;;;;;;16.70;14.50;;;;;;;2.09;100.00;98334.11;110201;1266;23009;-77
2024/01/15 00:25:00;;;;;;;18.60;15.20;;;;;;;2.08;100.00;98329.52;109922;1266;23707;-77
2024/01/15 00:27:28;;;;;;;18.00;14.40;;;;;;;2.06;100.00;98326.16;110261;1261;22006;-77
2024/01/15 00:29:56;;;;;;;17.90;14.40;;;;;;;2.05;100.00;98325.70;110521;1261;21970;-77
2024/01/15 00:32:24;;;;;;;17.60;14.10;;;;;;;2.06;100.00;98325.49;110564;1260;22348;-77
2024/01/15 00:34:52;;;;;;;14.70;13.10;;;;;;;2.09;100.00;98316.63;110607;1260;23528;-77
2024/01/15 00:37:21;;;;;;;17.10;14.00;;;;;;;2.11;100.00;98314.16;110848;1255;22742;-79
2024/01/15 00:39:49;;;;;;;17.10;14.20;;;;;;;2.12;100.00;98311.35;110436;1260;21983;-77
2024/01/15 00:42:20;;;;;;;14.00;12.50;;;;;;;2.11;100.00;98309.50;110567;1259;21973;-78
2024/01/15 00:44:51;;;;;;;17.10;14.20;;;;;;;2.08;100.00;98310.33;110253;1264;21965;-76
2024/01/15 00:47:19;;;;;;;17.70;14.00;;;;;;;2.05;100.00;98306.63;109860;1263;21980;-77
2024/01/15 00:49:47;;;;;;;15.80;14.00;;;;;;;2.04;100.00;98300.83;108943;1264;23064;-77
2024/01/15 00:52:15;;;;;;;15.70;13.00;;;;;;;2.06;100.00;98292.55;108817;1276;22125;-78
2024/01/15 00:54:43;;;;;;;18.80;14.70;;;;;;;2.04;100.00;98287.63;108925;1276;23724;-79
2024/01/15 00:57:11;;;;;;;17.50;14.30;;;;;;;2.03;100.00;98282.55;108852;1274;22153;-78
2024/01/15 00:59:42;;;;;;;17.90;15.20;;;;;;;1.98;100.00;98279.43;109143;1272;24550;-78
2024/01/15 01:02:11;;;;;;;17.60;13.60;;;;;;;1.96;100.00;98272.66;108827;1276;23926;-78
2024/01/15 01:04:44;;;;;;;17.50;14.90;;;;;;;1.97;100.00;98271.23;108936;1273;23096;-78
2024/01/15 01:07:16;;;;;;;16.50;13.80;;;;;;;1.96;100.00;98266.11;109338;1265;21980;-77
2024/01/15 01:09:46;;;;;;;17.70;15.50;;;;;;;1.96;100.00;98266.30;110060;1261;22296;-79
2024/01/15 01:12:14;;;;;;;18.70;16.70;;;;;;;1.94;100.00;98266.02;110477;1261;21965;-78
2024/01/15 01:14:48;;;;;;;18.90;16.30;;;;;;;1.95;100.00;98263.95;110332;1261;23689;-77
2024/01/15 01:17:19;;;;;;;16.50;14.90;;;;;;;1.89;100.00;98255.94;110579;1261;21964;-77
2024/01/15 01:19:49;;;;;;;;;;;;;;;1.83;100.00;98252.90;110437;1257;21945;-78
2024/01/15 01:22:18;;;;;;;19.60;17.60;;;;;;;1.71;100.00;98248.83;110591;1262;21967;-77
2024/01/15 01:24:47;;;;;;;18.60;16.60;;;;;;;1.70;100.00;98243.38;110532;1262;24356;-78
2024/01/15 01:27:19;;;;;;;;;;;;;;;1.73;100.00;98239.85;109455;1269;21956;-78
2024/01/15 01:29:48;;;;;;;18.40;15.10;;;;;;;1.66;100.00;98239.60;108891;1276;22010;-77
2024/01/15 01:32:20;;;;;;;18.20;16.10;;;;;;;1.64;100.00;98239.15;108972;1275;24308;-76
2024/01/15 01:34:51;;;;;;;17.90;15.00;;;;;;;1.64;100.00;98236.23;109099;1272;22003;-77
2024/01/15 01:37:28;;;;;;;15.80;13.90;;;;;;;1.63;100.00;98229.27;109297;1270;21984;-77
2024/01/15 01:39:57;;;;;;;17.50;15.70;;;;;;;1.61;100.00;98224.34;109215;1272;21988;-75
2024/01/15 01:42:28;;;;;;;17.00;14.80;;;;;;;1.59;100.00;98222.18;109308;1272;23609;-79
2024/01/15 01:44:56;;;;;;;22.30;14.20;;;;;;;1.58;100.00;98218.12;108922;1273;21991;-77
2024/01/15 01:47:34;;;;;;;16.80;14.00;;;;;;;1.55;100.00;98223.35;109218;1272;21986;-77
2024/01/15 01:50:06;;;;;;;16.10;14.00;;;;;;;1.51;100.00;98224.67;109386;1271;22052;-78
2024/01/15 01:52:40;;;;;;;15.00;13.40;;;;;;;1.54;100.00;98218.60;109577;1269;21977;-76
2024/01/15 01:55:11;;;;;;;14.90;12.30;;;;;;;1.54;100.00;98214.66;109968;1265;21979;-78
2024/01/15 01:57:42;;;;;;;17.40;14.00;;;;;;;1.54;100.00;98208.13;110059;1265;22437;-77
2024/01/15 02:00:12;;;;;;;15.00;12.10;;;;;;;1.54;100.00;98206.41;110191;1265;23108;-78
2024/01/15 02:02:45;;;;;;;15.30;13.10;;;;;;;1.56;100.00;98204.95;110361;1260;23042;-77
2024/01/15 02:05:22;;;;;;;13.60;12.30;;;;;;;1.58;100.00;98204.39;110574;1254;21996;-78
2024/01/15 02:07:54;;;;;;;13.70;12.00;;;;;;;1.58;100.00;98207.13;111120;1254;21988;-78
2024/01/15 02:10:25;;;;;;;13.40;11.90;;;;;;;1.59;100.00;98203.33;111267;1254;21959;-77
2024/01/15 02:12:57;;;;;;;13.50;12.10;;;;;;;1.57;100.00;98200.14;110903;1254;21987;-77
2024/01/15 02:15:29;;;;;;;13.70;12.10;;;;;;;1.57;100.00;98200.13;111281;1254;24294;-76
2024/01/15 02:18:04;;;;;;;13.80;11.40;;;;;;;1.59;100.00;98201.09;111084;1254;21954;-76
2024/01/15 02:20:36;;;;;;;12.30;11.10;;;;;;;1.60;100.00;98194.19;110548;1261;21966;-77
2024/01/15 02:23:18;;;;;;;12.00;10.80;;;;;;;1.59;100.00;98190.48;110448;1260;23745;-77
2024/01/15 02:25:47;;;;;;;13.40;11.90;;;;;;;1.61;100.00;98181.67;110669;1260;22434;-78
2024/01/15 02:28:18;;;;;;;12.70;11.00;;;;;;;1.60;100.00;98180.14;110644;1259;21967;-77
2024/01/15 02:30:49;;;;;;;13.20;11.80;;;;;;;1.59;100.00;98175.87;110723;1259;23689;-77
2024/01/15 02:33:17;;;;;;;12.30;11.10;;;;;;;1.60;100.00;98172.60;109975;1266;22026;-77
2024/01/15 02:35:59;;;;;;;12.80;11.50;;;;;;;1.62;100.00;98166.20;109807;1267;22981;-78
2024/01/15 02:38:33;;;;;;;13.00;11.50;;;;;;;1.62;100.00;98161.88;110155;1260;22053;-78
2024/01/15 02:41:04;;;;;;;15.50;12.80;;;;;;;1.64;100.00;98163.73;110588;1261;21970;-76
2024/01/15 02:43:33;;;;;;;12.00;10.80;;;;;;;1.65;100.00;98161.64;110471;1260;22400;-78
2024/01/15 02:46:02;;;;;;;13.30;11.60;;;;;;;1.64;100.00;98154.44;110416;1260;24733;-78
2024/01/15 02:48:30;;;;;;;12.30;11.00;;;;;;;1.65;100.00;98149.11;110696;1260;22721;-78
2024/01/15 02:51:02;;;;;;;14.20;12.30;;;;;;;1.66;100.00;98139.45;110701;1255;23738;-79
2024/01/15 02:53:30;;;;;;;11.90;10.50;;;;;;;1.66;100.00;98135.86;111076;1255;22234;-78
2024/01/15 02:56:07;;;;;;;13.20;11.70;;;;;;;1.65;100.00;98126.46;111063;1254;21958;-76
2024/01/15 02:58:42;;;;;;;12.50;11.20;;;;;;;1.66;100.00;98130.71;111264;1254;21958;-77
2024/01/15 03:01:14;;;;;;;13.00;11.70;;;;;;;1.65;100.00;98127.67;111004;1254;21955;-77
2024/01/15 03:03:46;;;;;;;12.90;11.00;;;;;;;1.61;100.00;98125.08;111269;1254;21988;-77
2024/01/15 03:06:17;;;;;;;12.40;10.40;;;;;;;1.61;100.00;98122.52;110592;1258;24998;-76
2024/01/15 03:08:46;;;;;;;12.60;11.10;;;;;;;1.61;100.00;98116.70;110533;1263;21967;-77
2024/01/15 03:11:14;;;;;;;12.90;10.90;;;;;;;1.60;100.00;98112.59;110240;1264;23359;-76
2024/01/15 03:13:43;;;;;;;12.70;11.40;;;;;;;1.61;100.00;98112.37;110055;1263;23197;-75
2024/01/15 03:16:11;;;;;;;12.50;11.20;;;;;;;1.63;100.00;98108.38;110288;1264;22035;-78
2024/01/15 03:18:39;;;;;;;12.40;11.10;;;;;;;1.64;100.00;98099.56;110262;1263;21971;-77
2024/01/15 03:21:09;;;;;;;13.20;11.80;;;;;;;1.64;100.00;98098.23;110415;1263;22743;-78
2024/01/15 03:23:37;;;;;;;15.10;11.60;;;;;;;1.62;100.00;98095.36;110137;1258;21998;-76
2024/01/15 03:26:09;;;;;;;12.50;11.30;;;;;;;1.62;100.00;98097.79;110446;1255;169384;-77
2024/01/15 03:28:37;;;;;;;13.50;12.00;;;;;;;1.64;100.00;98096.50;111033;1250;21957;-77
2024/01/15 03:31:08;;;;;;;13.20;11.80;;;;;;;1.64;100.00;98094.96;111257;1254;23674;-77
2024/01/15 03:33:40;;;;;;;12.50;11.20;;;;;;;1.66;100.00;98100.55;111125;1254;21948;-77
2024/01/15 03:36:10;;;;;;;12.40;10.70;;;;;;;1.65;100.00;98097.64;110866;1255;21963;-77
2024/01/15 03:38:42;;;;;;;12.90;11.60;;;;;;;1.65;100.00;98094.23;110936;1255;21964;-78
2024/01/15 03:41:15;;;;;;;13.10;10.70;;;;;;;1.64;100.00;98089.14;111003;1255;23740;-78
2024/01/15 03:43:47;;;;;;;12.80;11.10;;;;;;;1.63;100.00;98088.85;111060;1254;21942;-78
2024/01/15 03:46:16;;;;;;;12.80;11.50;;;;;;;1.64;100.00;98085.54;110971;1255;21957;-78
2024/01/15 03:48:48;;;;;;;11.80;10.30;;;;;;;1.65;100.00;98085.83;111026;1254;21963;-79
2024/01/15 03:51:21;;;;;;;12.50;11.20;;;;;;;1.65;100.00;98082.21;110740;1259;23704;-77
2024/01/15 03:53:52;;;;;;;13.20;10.90;;;;;;;1.65;100.00;98084.13;110607;1259;23291;-78
2024/01/15 03:56:22;;;;;;;12.30;11.00;;;;;;;1.62;100.00;98078.56;110746;1259;21963;-78
2024/01/15 03:58:55;;;;;;;12.80;11.50;;;;;;;1.62;100.00;98074.46;110730;1259;23647;-77
2024/01/15 04:01:24;;;;;;;14.40;12.00;;;;;;;1.62;100.00;98070.17;110587;1259;21992;-78
2024/01/15 04:03:52;;;;;;;13.80;11.60;;;;;;;1.64;100.00;98067.70;110586;1259;23158;-77
2024/01/15 04:06:24;;;;;;;12.10;10.80;;;;;;;1.66;100.00;98062.47;110627;1259;21972;-76
2024/01/15 04:08:52;;;;;;;12.00;10.70;;;;;;;1.66;100.00;98055.10;110684;1254;23657;-78
2024/01/15 04:11:22;;;;;;;57.90;47.90;;;;;;;1.67;100.00;98052.84;110840;1255;22945;-78
2024/01/15 04:13:52;;;;;;;13.80;12.40;;;;;;;1.68;100.00;98051.42;111076;1253;22170;-77
2024/01/15 04:16:24;;;;;;;11.90;10.70;;;;;;;1.68;100.00;98051.41;111070;1254;21964;-79
2024/01/15 04:18:53;;;;;;;11.10;9.80;;;;;;;1.68;100.00;98052.98;111275;1255;23688;-78
2024/01/15 04:21:24;;;;;;;12.30;10.30;;;;;;;1.69;100.00;98046.74;110835;1254;23023;-77
2024/01/15 04:23:53;;;;;;;41.70;34.90;;;;;;;1.72;100.00;98037.39;111087;1254;23016;-78
2024/01/15 04:26:24;;;;;;;12.90;11.60;;;;;;;1.72;100.00;98032.02;111020;1254;22359;-78
2024/01/15 04:28:55;;;;;;;11.70;10.60;;;;;;;1.73;100.00;98030.64;111088;1254;21955;-76
2024/01/15 04:31:29;;;;;;;11.10;10.00;;;;;;;1.74;100.00;98029.92;111122;1254;21970;-78
2024/01/15 04:34:01;;;;;;;11.40;10.20;;;;;;;1.74;100.00;98026.48;111299;1252;21963;-78
2024/01/15 04:36:29;;;;;;;10.80;9.80;;;;;;;1.75;100.00;98023.02;111102;1254;22442;-77
2024/01/15 04:39:01;;;;;;;11.60;10.30;;;;;;;1.76;100.00;98019.89;110716;1258;21995;-77
2024/01/15 04:41:29;;;;;;;12.50;11.20;;;;;;;1.75;100.00;98016.16;110103;1262;21975;-77
2024/01/15 04:43:57;;;;;;;12.20;11.00;;;;;;;1.76;100.00;98010.82;110476;1262;22153;-77
2024/01/15 04:46:32;;;;;;;10.30;9.10;;;;;;;1.74;100.00;98006.27;110354;1262;21976;-78
2024/01/15 04:49:03;;;;;;;11.30;10.10;;;;;;;1.71;100.00;98005.01;110427;1262;22035;-77
2024/01/15 04:51:34;;;;;;;12.60;10.50;;;;;;;1.72;100.00;98006.68;109653;1268;22902;-79
2024/01/15 04:54:10;;;;;;;11.10;9.90;;;;;;;1.75;100.00;98005.73;109325;1272;21981;-78
2024/01/15 04:56:40;;;;;;;11.90;10.70;;;;;;;1.75;100.00;98007.08;109052;1273;21986;-77
2024/01/15 04:59:09;;;;;;;11.80;10.60;;;;;;;1.75;100.00;98003.84;109302;1272;21990;-77
2024/01/15 05:01:38;;;;;;;12.40;11.00;;;;;;;1.75;100.00;97998.83;109339;1272;23741;-77
2024/01/15 05:04:10;;;;;;;11.90;10.70;;;;;;;1.75;100.00;97996.29;109272;1272;22041;-76
2024/01/15 05:06:39;;;;;;;11.50;10.10;;;;;;;1.73;100.00;97992.08;108969;1274;23170;-77
2024/01/15 05:09:08;;;;;;;11.80;10.60;;;;;;;1.68;100.00;97992.42;108953;1273;22002;-78
2024/01/15 05:11:39;;;;;;;13.00;11.40;;;;;;;1.64;100.00;97994.14;109036;1273;22961;-77
2024/01/15 05:14:08;;;;;;;11.90;10.70;;;;;;;1.62;100.00;97991.80;109070;1273;21995;-79
2024/01/15 05:16:39;;;;;;;12.30;10.50;;;;;;;1.62;100.00;97989.95;109151;1273;22904;-78
2024/01/15 05:19:08;;;;;;;11.60;10.40;;;;;;;1.57;100.00;97987.71;109727;1267;22067;-78
2024/01/15 05:21:38;;;;;;;13.60;11.90;;;;;;;1.50;100.00;97987.48;109911;1267;21990;-77
2024/01/15 05:24:06;;;;;;;13.20;11.60;;;;;;;1.46;100.00;97984.02;109652;1265;23798;-78
2024/01/15 05:26:38;;;;;;;14.50;11.10;;;;;;;1.43;100.00;97984.85;110192;1260;22030;-75
2024/01/15 05:29:08;;;;;;;13.00;11.70;;;;;;;1.40;100.00;97984.27;110683;1259;23774;-77
2024/01/15 05:31:42;;;;;;;13.80;12.40;;;;;;;1.37;100.00;97986.29;110398;1259;22119;-76
2024/01/15 05:34:12;;;;;;;14.40;12.80;;;;;;;1.36;100.00;97980.83;110635;1259;21967;-78
2024/01/15 05:36:46;;;;;;;13.10;11.70;;;;;;;1.34;100.00;97980.38;110251;1263;23621;-77
2024/01/15 05:39:17;;;;;;;13.30;11.90;;;;;;;1.31;100.00;97981.34;109427;1270;21989;-78
2024/01/15 05:41:50;;;;;;;13.80;12.40;;;;;;;1.31;100.00;97978.96;109470;1270;22412;-79
2024/01/15 05:44:21;;;;;;;13.20;11.70;;;;;;;1.33;100.00;97976.15;109279;1272;21977;-77
2024/01/15 05:46:50;;;;;;;14.20;12.20;;;;;;;1.31;100.00;97977.09;109281;1272;23037;-77
2024/01/15 05:49:19;;;;;;;13.80;12.20;;;;;;;1.20;100.00;97968.23;109490;1270;23118;-78
2024/01/15 05:51:55;;;;;;;;;;;;;;;1.28;100.00;97979.06;109480;1264;22007;-78
2024/01/15 05:54:27;;;;;;;15.20;11.70;;;;;;;1.19;100.00;97977.36;109532;1268;21982;-78
2024/01/15 05:56:57;;;;;;;12.00;10.70;;;;;;;1.15;100.00;97980.41;109980;1264;21980;-78
2024/01/15 05:59:35;;;;;;;12.70;11.40;;;;;;;1.19;100.00;97987.47;110185;1265;21972;-78
2024/01/15 06:02:07;;;;;;;13.10;11.50;;;;;;;1.23;100.00;97987.48;110219;1258;24057;-77
2024/01/15 06:04:40;;;;;;;13.00;11.60;;;;;;;1.25;100.00;97987.75;110410;1263;21967;-77
2024/01/15 06:07:15;;;;;;;11.50;10.40;;;;;;;1.26;100.00;97987.70;110397;1263;23015;-78
2024/01/15 06:09:46;;;;;;;12.90;10.40;;;;;;;1.30;100.00;97994.77;110079;1263;23716;-76
2024/01/15 06:12:18;;;;;;;11.70;10.00;;;;;;;1.30;100.00;97996.63;110364;1261;23382;-77
2024/01/15 06:14:52;;;;;;;11.40;9.90;;;;;;;1.31;100.00;98006.89;110572;1260;22006;-76
2024/01/15 06:17:21;;;;;;;13.50;11.50;;;;;;;1.33;100.00;98016.23;110516;1260;22442;-77
2024/01/15 06:19:49;;;;;;;14.20;12.70;;;;;;;1.35;100.00;98019.94;110702;1260;23475;-78
2024/01/15 06:22:20;;;;;;;11.30;9.80;;;;;;;1.34;100.00;98019.62;110802;1254;22422;-78
2024/01/15 06:24:54;;;;;;;12.70;10.60;;;;;;;1.32;100.00;98017.80;111040;1255;21967;-76
2024/01/15 06:27:25;;;;;;;11.70;10.50;;;;;;;1.29;100.00;98017.05;111070;1254;22015;-77
2024/01/15 06:29:57;;;;;;;17.80;15.00;;;;;;;1.28;100.00;98022.08;111281;1254;23680;-75
2024/01/15 06:32:30;;;;;;;11.20;10.00;;;;;;;1.29;100.00;98025.82;111118;1254;21980;-77
2024/01/15 06:35:02;;;;;;;11.80;8.60;;;;;;;1.30;100.00;98022.19;110985;1254;21991;-76
2024/01/15 06:37:32;;;;;;;13.70;10.50;;;;;;;1.31;100.00;98019.20;110985;1255;22107;-76
2024/01/15 06:40:00;;;;;;;14.50;10.70;;;;;;;1.33;100.00;98022.41;111064;1254;23074;-78
2024/01/15 06:42:33;;;;;;;13.70;11.10;;;;;;;1.34;100.00;98025.09;111010;1254;23612;-77
2024/01/15 06:45:07;;;;;;;14.40;11.30;;;;;;;1.37;100.00;98025.02;111281;1254;23609;-77
2024/01/15 06:47:37;;;;;;;12.50;10.80;;;;;;;1.40;100.00;98029.70;111354;1253;23015;-78
2024/01/15 06:50:06;;;;;;;17.20;14.40;;;;;;;1.42;100.00;98034.08;111090;1254;23606;-78
2024/01/15 06:52:36;;;;;;;13.20;11.80;;;;;;;1.46;100.00;98040.61;110999;1254;21936;-77
2024/01/15 06:55:08;;;;;;;13.20;11.80;;;;;;;1.48;100.00;98040.85;110673;1258;21955;-78
2024/01/15 06:57:41;;;;;;;15.10;11.90;;;;;;;1.50;100.00;98045.24;110788;1258;23624;-78
2024/01/15 07:00:11;;;;;;;12.40;11.00;;;;;;;1.50;100.00;98045.40;110562;1258;21969;-78
2024/01/15 07:02:42;;;;;;;13.80;11.90;;;;;;;1.50;100.00;98046.27;110597;1261;22593;-77
2024/01/15 07:05:12;;;;;;;15.70;13.90;;;;;;;1.48;100.00;98043.08;110709;1261;23589;-78
2024/01/15 07:07:40;;;;;;;19.80;14.40;;;;;;;1.47;100.00;98044.65;110493;1262;21965;-78
2024/01/15 07:10:09;;;;;;;18.40;14.20;;;;;;;1.47;100.00;98044.48;110528;1261;23618;-77
2024/01/15 07:12:37;;;;;;;15.40;13.20;;;;;;;1.49;100.00;98043.75;110584;1258;21978;-79
2024/01/15 07:15:07;;;;;;;15.40;12.50;;;;;;;1.52;100.00;98041.75;110176;1263;22924;-77
2024/01/15 07:17:39;;;;;;;13.10;11.70;;;;;;;1.54;100.00;98041.84;110506;1262;22427;-77
2024/01/15 07:20:11;;;;;;;13.50;11.30;;;;;;;1.52;100.00;98043.25;110271;1263;22913;-77
2024/01/15 07:22:43;;;;;;;14.80;11.80;;;;;;;1.53;100.00;98042.20;110421;1263;23087;-78
2024/01/15 07:25:12;;;;;;;13.00;11.20;;;;;;;1.55;100.00;98034.95;110487;1263;23044;-79
2024/01/15 07:28:10;;;;;;;;;;;;;;;;;;;;;
2024/01/15 07:30:48;;;;;;;18.70;13.80;;;;;;;1.46;100.00;98018.50;109679;1268;24361;-78
2024/01/15 07:33:19;;;;;;;19.10;14.80;;;;;;;1.57;100.00;98038.97;110223;1262;23006;-78
2024/01/15 07:35:51;;;;;;;19.20;15.90;;;;;;;1.57;100.00;98041.36;110450;1262;23031;-77
2024/01/15 07:38:28;;;;;;;20.40;14.80;;;;;;;1.53;100.00;98037.08;110293;1262;22018;-78
2024/01/15 07:40:59;;;;;;;14.50;11.80;;;;;;;1.54;100.00;98040.30;110558;1259;23734;-78
2024/01/15 07:43:33;;;;;;;15.60;12.50;;;;;;;1.55;100.00;98040.61;110572;1260;22235;-78
2024/01/15 07:46:03;;;;;;;15.00;12.80;;;;;;;1.57;100.00;98039.52;110787;1254;21989;-77
2024/01/15 07:48:34;;;;;;;12.70;10.80;;;;;;;1.60;100.00;98035.96;110682;1259;21977;-77
2024/01/15 07:51:06;;;;;;;15.40;12.20;;;;;;;1.60;100.00;98030.81;110548;1260;21979;-76
2024/01/15 07:53:37;;;;;;;20.70;14.50;;;;;;;1.59;100.00;98033.05;110693;1260;23719;-75
2024/01/15 07:56:11;;;;;;;35.40;26.70;;;;;;;1.60;100.00;98036.30;110550;1260;21979;-76
2024/01/15 07:58:44;;;;;;;49.30;36.50;;;;;;;1.62;100.00;98029.53;110512;1260;21954;-77
2024/01/15 08:01:13;;;;;;;26.90;19.90;;;;;;;1.62;100.00;98029.70;110580;1259;22905;-77
2024/01/15 08:03:48;;;;;;;19.90;16.40;;;;;;;1.64;100.00;98032.36;110629;1260;23751;-77
2024/01/15 08:06:19;;;;;;;22.10;15.10;;;;;;;1.65;100.00;98033.02;110812;1254;24255;-77
2024/01/15 08:09:16;;;;;;;16.00;14.10;;;;;;;1.65;100.00;98026.86;111314;1254;21955;-80
2024/01/15 08:11:51;;;;;;;20.70;14.80;;;;;;;1.66;100.00;98021.66;111097;1254;21954;-81
2024/01/15 08:14:25;;;;;;;17.10;15.10;;;;;;;1.71;100.00;98024.02;111283;1254;21988;-78
2024/01/15 08:16:54;;;;;;;20.10;14.30;;;;;;;1.76;100.00;98023.17;110681;1259;23606;-77
2024/01/15 08:19:24;;;;;;;18.00;12.20;;;;;;;1.78;100.00;98020.19;110060;1264;21964;-76
2024/01/15 08:21:55;;;;;;;15.10;13.00;;;;;;;1.79;100.00;98013.44;110258;1264;22016;-76
2024/01/15 08:24:26;;;;;;;19.90;14.50;;;;;;;1.79;100.00;98006.92;110221;1264;22069;-78
2024/01/15 08:26:56;;;;;;;15.30;11.30;;;;;;;1.80;100.00;98014.94;110469;1263;21951;-76
2024/01/15 08:29:26;;;;;;;14.70;12.40;;;;;;;1.81;100.00;98011.83;110276;1263;21979;-77
2024/01/15 08:31:59;;;;;;;22.00;15.80;;;;;;;1.82;100.00;98013.15;110487;1263;21979;-77
2024/01/15 08:34:31;;;;;;;24.00;17.30;;;;;;;1.84;100.00;98012.55;110307;1260;21968;-77
2024/01/15 08:37:03;;;;;;;16.80;12.60;;;;;;;1.84;100.00;98014.09;110732;1254;21996;-77
2024/01/15 08:39:31;;;;;;;16.40;12.50;;;;;;;1.85;100.00;98014.58;111002;1254;22900;-78
2024/01/15 08:42:00;;;;;;;19.00;13.50;;;;;;;1.88;100.00;98015.13;111060;1254;22014;-77
2024/01/15 08:44:31;;;;;;;19.10;14.70;;;;;;;1.91;100.00;98016.38;110989;1255;23019;-77
2024/01/15 08:47:02;;;;;;;22.30;16.50;;;;;;;1.91;100.00;98009.18;110909;1258;21968;-78
2024/01/15 08:49:31;;;;;;;20.90;15.40;;;;;;;1.93;100.00;98003.62;110647;1259;23025;-76
2024/01/15 08:52:00;;;;;;;17.40;13.90;;;;;;;1.98;100.00;98005.66;110020;1264;21973;-78
2024/01/15 08:54:38;;;;;;;22.90;15.80;;;;;;;2.02;100.00;98012.71;110091;1264;23071;-78
2024/01/15 08:57:26;;;;;;;23.20;14.40;;;;;;;2.04;100.00;98019.83;109844;1264;22059;-81
2024/01/15 09:00:47;;;;;;;19.50;13.80;;;;;;;2.01;100.00;98014.95;110568;1251;23043;-79
2024/01/15 09:03:44;;;;;;;18.50;14.50;;;;;;;2.00;100.00;98016.54;110533;1264;21968;-83
2024/01/15 09:07:05;;;;;;;18.40;13.30;;;;;;;1.95;100.00;98012.62;110754;1259;23733;-78
2024/01/15 09:10:17;;;;;;;28.60;16.70;;;;;;;1.94;100.00;98008.04;110892;1254;22998;-80
2024/01/15 09:12:58;;;;;;;19.80;16.10;;;;;;;1.97;100.00;98014.12;111327;1255;21942;-79
2024/01/15 09:15:32;;;;;;;21.60;15.20;;;;;;;2.01;100.00;98013.77;111421;1254;21952;-78
2024/01/15 09:22:10;;;;;;;19.30;14.80;;;;;;;2.05;100.00;98009.30;110610;1261;23693;-80
2024/01/15 09:25:42;;;;;;;13.30;11.40;;;;;;;2.06;100.00;98007.06;109942;1267;22030;-79
2024/01/15 09:28:18;;;;;;;;;;;;;;;2.09;100.00;98016.67;109777;1267;23039;-78
2024/01/15 09:31:04;;;;;;;20.70;15.40;;;;;;;2.04;100.00;98015.35;109792;1267;21976;-78
2024/01/15 09:34:04;;;;;;;16.70;13.00;;;;;;;2.09;100.00;98013.96;110011;1267;24351;-81
2024/01/15 09:36:53;;;;;;;20.10;14.70;;;;;;;2.12;100.00;98015.88;110046;1266;22434;-79
2024/01/15 09:39:34;;;;;;;17.80;13.90;;;;;;;2.15;100.00;98011.49;109909;1267;22830;-79
2024/01/15 09:42:31;;;;;;;20.30;13.40;;;;;;;2.18;100.00;98006.04;109187;1267;22011;-78
2024/01/15 09:44:59;;;;;;;15.80;12.00;;;;;;;2.24;100.00;98005.27;109945;1267;21978;-77
2024/01/15 09:47:46;;;;;;;18.70;12.30;;;;;;;2.26;100.00;98002.80;109205;1261;23171;-78
2024/01/15 09:50:21;;;;;;;16.10;11.50;;;;;;;2.24;100.00;98001.50;108810;1268;21595;-78
2024/01/15 09:53:00;;;;;;;21.90;15.30;;;;;;;2.22;100.00;97991.98;109244;1271;22051;-78
2024/01/15 09:55:34;;;;;;;17.70;14.50;;;;;;;2.21;100.00;97991.19;108912;1276;21987;-80
2024/01/15 10:01:49;;;;;;;22.40;17.70;;;;;;;2.36;100.00;97983.15;109452;1271;23037;-78
2024/01/15 10:04:34;;;;;;;20.40;16.80;;;;;;;2.39;100.00;97984.61;109082;1275;23618;-78
2024/01/15 10:07:09;;;;;;;23.80;17.50;;;;;;;2.41;100.00;97978.34;109675;1270;22052;-79
2024/01/15 10:09:42;;;;;;;19.80;16.10;;;;;;;2.41;100.00;97979.52;110428;1265;21986;-79
2024/01/15 10:13:12;;;;;;;;;;;;;;;;;;;;;
2024/01/15 10:16:12;;;;;;;19.70;13.30;;;;;;;2.34;100.00;97989.42;111014;1259;22163;-79
2024/01/15 10:18:46;;;;;;;14.90;11.20;;;;;;;2.31;100.00;97980.45;110734;1259;23262;-81
2024/01/15 10:21:37;;;;;;;19.90;13.30;;;;;;;2.29;100.00;97981.73;110832;1256;24295;-79
2024/01/15 10:24:10;;;;;;;20.50;15.20;;;;;;;2.29;100.00;97986.55;110697;1258;23039;-79
2024/01/15 10:26:46;;;;;;;19.80;14.90;;;;;;;2.28;100.00;97985.19;110605;1259;21983;-77
2024/01/15 10:29:26;;;;;;;25.30;16.80;;;;;;;2.26;100.00;97981.17;110586;1259;22177;-80
2024/01/15 10:32:00;;;;;;;24.70;18.00;;;;;;;2.24;100.00;97991.03;110865;1258;22072;-78
2024/01/15 10:34:34;;;;;;;29.20;18.40;;;;;;;2.26;100.00;97992.36;110691;1258;23085;-78
2024/01/15 10:37:08;;;;;;;20.60;13.60;;;;;;;2.27;100.00;97995.70;110717;1258;22931;-77
2024/01/15 10:39:37;;;;;;;22.30;15.90;;;;;;;2.29;100.00;97994.59;110270;1264;21970;-79
2024/01/15 10:42:07;;;;;;;23.30;16.40;;;;;;;2.30;100.00;97986.14;110510;1259;22192;-79
2024/01/15 10:44:38;;;;;;;18.40;13.60;;;;;;;2.28;100.00;97988.80;110799;1259;21981;-77
2024/01/15 10:47:11;;;;;;;21.30;14.60;;;;;;;2.26;100.00;97987.17;110074;1265;23696;-78
2024/01/15 10:49:41;;;;;;;;;;;;;;;2.24;100.00;97984.88;109782;1265;24048;-79
2024/01/15 10:52:16;;;;;;;17.60;12.80;;;;;;;2.17;100.00;97987.40;110237;1264;22078;-80
2024/01/15 10:54:59;;;;;;;21.80;13.90;;;;;;;2.18;100.00;97991.64;110683;1264;22031;-84
2024/01/15 10:57:46;;;;;;;19.50;13.10;;;;;;;2.21;100.00;97995.29;110473;1264;21982;-81
2024/01/15 11:00:20;;;;;;;17.90;13.80;;;;;;;2.21;100.00;97991.84;110423;1264;23069;-78
2024/01/15 11:02:57;;;;;;;21.00;13.00;;;;;;;2.25;100.00;97987.72;110275;1264;21976;-82
2024/01/15 11:05:57;;;;;;;17.10;11.50;;;;;;;2.31;100.00;97984.92;110663;1255;21960;-79
2024/01/15 11:08:36;;;;;;;17.50;10.50;;;;;;;2.31;100.00;97993.66;110753;1254;21947;-78
2024/01/15 11:11:13;;;;;;;14.90;10.80;;;;;;;2.28;100.00;97992.23;110551;1260;21965;-77
2024/01/15 11:19:00;;;;;;;15.30;9.40;;;;;;;2.27;100.00;97995.55;109224;1268;21986;-78
2024/01/15 11:22:47;;;;;;;;;;;;;;;;;;;;;
2024/01/15 11:25:57;;;;;;;18.50;12.30;;;;;;;2.10;100.00;97974.80;108788;1279;22834;-78
2024/01/15 11:28:57;;;;;;;17.70;14.60;;;;;;;2.21;100.00;97995.11;108803;1275;21964;-78
2024/01/15 11:31:43;;;;;;;18.80;13.60;;;;;;;2.20;100.00;97989.67;109047;1276;23033;-77
2024/01/15 11:35:02;;;;;;;19.10;13.30;;;;;;;2.16;100.00;97987.92;109019;1275;23818;-79
2024/01/15 11:38:01;;;;;;;19.30;11.60;;;;;;;2.19;100.00;97990.05;109030;1275;22045;-80
2024/01/15 11:40:51;;;;;;;20.00;10.90;;;;;;;2.23;100.00;97988.50;108995;1275;22001;-80
2024/01/15 11:43:47;;;;;;;18.40;10.30;;;;;;;2.27;100.00;97994.50;108991;1275;23606;-78
2024/01/15 11:46:35;;;;;;;14.70;10.50;;;;;;;2.32;100.00;97980.40;109173;1275;23621;-78
2024/01/15 11:50:01;;;;;;;16.80;10.20;;;;;;;2.33;100.00;97983.61;110137;1268;21983;-79
2024/01/15 11:53:04;;;;;;;13.60;10.30;;;;;;;2.33;100.00;97980.35;110427;1252;23037;-77
2024/01/15 11:56:43;;;;;;;16.70;10.20;;;;;;;2.35;100.00;97978.92;110370;1260;21967;-78
2024/01/15 12:00:15;;;;;;;17.20;10.90;;;;;;;2.43;100.00;97978.05;109321;1273;23637;-77
2024/01/15 12:03:34;;;;;;;22.40;13.80;;;;;;;2.61;100.00;97978.84;109329;1273;22936;-76
2024/01/15 12:06:23;;;;;;;17.70;11.90;;;;;;;2.75;100.00;97976.67;109258;1273;22817;-77